Terminal Aerodrome Forecast
Issued by NWS Wichita, KS

Home | Current Version | Previous Version | Text Only | Print | Product List | Glossary Off
Versions: 1 2 3 4 5 6 7 8 9 10 11 12 13 14 15 16

000
FTUS43 KICT 291720
TAFICT
TAF
KICT 291720Z 2918/3018 04011KT P6SM VCTS SCT040 BKN080CB
      TEMPO 2918/2920 VRB15G22KT 5SM TSRA OVC040CB
     FM300100 07006KT P6SM VCTS BKN070CB
     FM300900 08006KT P6SM -SHRA VCTS OVC060CB=

USA.gov is the U.S. government's official web portal to all federal, state and local government web resources and services.